Main page
METAR-TAF:

METAR-TAF

Airports :

Tunis, Tunisia

Tunis–Carthage International Airport

latitude: 36-50N, longitude: 010-14E, elevation: 3 m

Current weather observation

The report was made 28 minutes ago, at 22:30 UTC
Wind 3 kt from the Northeast, varying between North and East/Northeast
Temperature 23°C
Humidity 78%
Pressure 1018 hPa
Visibility 10 km or more
no clouds below 1500 m and no cumulonimbus

METAR: DTTA 232230Z 04003KT 010V070 CAVOK 23/19 Q1018 NOSIG

Time: 23:58 (22:58 UTC)

Forecast

The report was made 5 hours and 48 minutes ago, at 17:10 UTC
Forecast valid from 23 at 18 UTC to 24 at 18 UTC
Wind 8 kt from the East/Northeast
Visibility 10 km or more
no clouds below 1500 m and no cumulonimbus
Temporary
from 23 at 22 UTC to 24 at 09 UTC
Wind 4 kt from the North

TAF: DTTA 231710Z 2318/2418 07008KT CAVOK TEMPO 2322/2409 01004KT

Weather observations and forecasts of more than 4000 airports (METAR and TAF reports).

The available stations are represented by yellow and red dots on the map.

Hover mouse over dot to see the name of the station.

Then click to see weather observations and forecasts.

To change the map : click on the green buttons with a black cross to zoom in, on the green button with a dash to zoom out, or on the green arrows for adjacent maps.


METAR-TAF: